Resums METAR propers

 

LELL - Sabadell, Spain
Distŕncia des de l'estació: E 18km
Actualització: 18/01/2019 10:00
Núvols i clarianes
Núvols i clarianes
 Vent del O
Vent: O 6 km/h
Temperatura: 5°C
Rosada: 3°C
Humitat: 87%
Barňmetre: 1018 hPa
Nuvolositat: Núvols i clarianes
Visibilitat: 9 km
Detalls nuvolositat: Alguns núvols 457 m
Núvols i clarianes 610 m
2019/01/18 09:00 LELL 180900Z 28003KT 240V320 9000 FEW015 BKN020 05/03 Q1018
LEBL - Barcelona Airpor, Spain
Distŕncia des de l'estació: SSE 33km
Actualització: 18/01/2019 10:00
Núvols i clarianes
Núvols i clarianes
 Vent del NNO
Vent: NNO 24 km/h, Rŕfega: 46 km/h
Temperatura: 6°C
Sensació: 2°C
Rosada: 3°C
Humitat: 81%
Barňmetre: 1018 hPa
Nuvolositat: Núvols i clarianes
Visibilitat: 9 km
Detalls nuvolositat: Núvols i clarianes 762 m
2019/01/18 09:00 LEBL 180900Z 33013G25KT 9000 BKN025 06/03 Q1018 NOSIG
LERS - Reus (civ/Mil), Spain
Distŕncia des de l'estació: SO 75km
Actualització: 18/01/2019 10:00
Alguns núvols
Alguns núvols
 Vent del ESE
Vent: ESE 7 km/h
Temperatura: 6°C
Sensació: 4°C
Rosada: 3°C
Humitat: 81%
Barňmetre: 1018 hPa
Nuvolositat: Alguns núvols
Visibilitat: 10 km
Detalls nuvolositat: Alguns núvols 914 m
2019/01/18 09:00 LERS 180900Z 12004KT 090V160 9999 FEW030 06/03 Q1018
 
LEGE - Gerona/Costa Bra, Spain
Distŕncia des de l'estació: ENE 83km
Actualització: 18/01/2019 10:00
Bancs de boira, Molt cobert
Bancs de boira, Molt cobert
 Vent del N
Vent: N 6 km/h
Temperatura: 5°C
Rosada: 5°C
Humitat: 100%
Barňmetre: 1018 hPa
Resum: Bancs de boira
Nuvolositat: Núvols i clarianes
Visibilitat: 8 km
Detalls nuvolositat: Núvols i clarianes 914 m
2019/01/18 09:00 LEGE 180900Z 01003KT 310V040 8000 BCFG BKN030 05/05 Q1018
LFMP - Perpignan/Rivesa, France
Distŕncia des de l'estació: NNE 155km
Actualització: 18/01/2019 10:00
Alguns núvols
Alguns núvols
 Vent del NO
Vent: NO 20 km/h
Temperatura: 9°C
Sensació: 6°C
Rosada: 2°C
Humitat: 62%
Barňmetre: 1018 hPa
Nuvolositat: Alguns núvols
Visibilitat: 10 km
Detalls nuvolositat: Alguns núvols 1128 m
2019/01/18 09:00 LFMP 180900Z AUTO 32011KT 290V350 9999 FEW037 09/02 Q1018 NOSIG
LFMK - Carcassonne/Salv, France
Distŕncia des de l'estació: N 191km
Actualització: 18/01/2019 10:00
Alguns núvols
Alguns núvols
 Vent del O
Vent: O 17 km/h
Temperatura: 6°C
Sensació: 3°C
Rosada: 3°C
Humitat: 81%
Barňmetre: 1019 hPa
Nuvolositat: Alguns núvols
Visibilitat: 10 km
Detalls nuvolositat: Alguns núvols 274 m
2019/01/18 09:00 LFMK 180900Z AUTO 27009KT 9999 FEW009 06/03 Q1019 NOSIG
 
LEHC - Huesca-Pirineos, Spain
Distŕncia des de l'estació: ONO 193km
Actualització: 18/01/2019 10:00
Freezing fog, Tapat
Freezing fog, Tapat
 Vent del NE
Vent: NE 6 km/h
Temperatura: -2°C
Rosada: -2°C
Humitat: 100%
Barňmetre: 1018 hPa
Resum: Freezing Fog
Nuvolositat: Tapat
Visibilitat: 0 km
Detalls nuvolositat: Tapat 61 m
2019/01/18 09:00 LEHC 180900Z 05003KT 010V100 0100 R30L/0300N FZFG VV002 M02/M02 Q1018
LFMU - Beziers/Vias, France
Distŕncia des de l'estació: NNE 232km
Actualització: 18/01/2019 10:00
Seré
Seré
 Vent del O
Vent: O 13 km/h
Temperatura: 5°C
Sensació: 2°C
Rosada: 2°C
Humitat: 81%
Barňmetre: 1018 hPa
Resum: Seré
Visibilitat: major de 10 km
2019/01/18 09:00 LFMU 180900Z AUTO 28007KT CAVOK 05/02 Q1018 NOSIG
LEPA - Palma De Mallorc, Spain
Distŕncia des de l'estació: SSE 233km
Actualització: 18/01/2019 10:00
Núvols i clarianes
Núvols i clarianes
 Vent del NE
Vent: NE 17 km/h
Temperatura: 10°C
Sensació: 8°C
Rosada: 8°C
Humitat: 88%
Barňmetre: 1018 hPa
Nuvolositat: Núvols i clarianes
Visibilitat: 10 km
Detalls nuvolositat: Alguns núvols 732 m
Núvols i clarianes 1768 m
2019/01/18 09:00 LEPA 180900Z 05009KT 9999 FEW024 BKN058 10/08 Q1018 NOSIG
 
LFBO - Toulouse/Blagnac, France
Distŕncia des de l'estació: N 236km
Actualització: 18/01/2019 10:00
Núvols i clarianes
Núvols i clarianes
 Vent del S
Vent: S 7 km/h
Temperatura: 3°C
Sensació: 1°C
Rosada: 2°C
Humitat: 93%
Barňmetre: 1019 hPa
Nuvolositat: Núvols i clarianes
Visibilitat: 10 km
Detalls nuvolositat: Núvols i clarianes 975 m
Núvols i clarianes 1219 m
Núvols i clarianes 1524 m
2019/01/18 09:00 LFBO 180900Z AUTO 18004KT 9999 BKN032 BKN040 BKN050 03/02 Q1019 NOSIG
LFBT - Tarbes/Ossun, France
Distŕncia des de l'estació: NO 239km
Actualització: 18/01/2019 10:00
Núvols i clarianes
Núvols i clarianes
 Vent del SSE
Vent: SSE 11 km/h
Temperatura: 3°C
Sensació: 0°C
Rosada: 1°C
Humitat: 87%
Barňmetre: 1018 hPa
Nuvolositat: Núvols i clarianes
Visibilitat: 10 km
Detalls nuvolositat: Núvols i clarianes 1951 m
Núvols i clarianes 5486 m
2019/01/18 09:00 LFBT 180900Z AUTO 15006KT 9999 BKN064 BKN180 03/01 Q1018 NOSIG
LEZG - Zaragoza (mil/Ci, Spain
Distŕncia des de l'estació: O 242km
Actualització: 18/01/2019 10:00
Seré
Seré
 Vent del O
Vent: O 20 km/h
Temperatura: 6°C
Sensació: 2°C
Rosada: 1°C
Humitat: 71%
Barňmetre: 1019 hPa
Resum: Seré
Visibilitat: major de 10 km
2019/01/18 09:00 LEZG 180900Z 28011KT CAVOK 06/01 Q1019